sensor_id;sensor_type;location;lat;lon;timestamp;P1;durP1;ratioP1;P2;durP2;ratioP2
16654;SDS011;8441;51.344;7.022;2023-03-01T00:01:00;0.60;;;0.60;;
16654;SDS011;8441;51.344;7.022;2023-03-01T00:03:28;0.50;;;0.50;;
16654;SDS011;8441;51.344;7.022;2023-03-01T00:05:55;0.60;;;0.60;;
16654;SDS011;8441;51.344;7.022;2023-03-01T00:08:25;0.60;;;0.60;;
16654;SDS011;8441;51.344;7.022;2023-03-01T00:10:59;0.50;;;0.50;;
16654;SDS011;8441;51.344;7.022;2023-03-01T00:13:27;0.60;;;0.60;;
16654;SDS011;8441;51.344;7.022;2023-03-01T00:15:55;0.67;;;0.67;;
16654;SDS011;8441;51.344;7.022;2023-03-01T00:18:23;0.60;;;0.60;;
16654;SDS011;8441;51.344;7.022;2023-03-01T00:20:50;0.50;;;0.50;;
16654;SDS011;8441;51.344;7.022;2023-03-01T00:23:18;0.70;;;0.70;;
16654;SDS011;8441;51.344;7.022;2023-03-01T00:25:46;0.50;;;0.50;;
16654;SDS011;8441;51.344;7.022;2023-03-01T00:28:14;0.60;;;0.60;;
16654;SDS011;8441;51.344;7.022;2023-03-01T00:30:41;0.60;;;0.60;;
16654;SDS011;8441;51.344;7.022;2023-03-01T00:33:08;0.60;;;0.60;;
16654;SDS011;8441;51.344;7.022;2023-03-01T00:35:36;0.50;;;0.50;;
16654;SDS011;8441;51.344;7.022;2023-03-01T00:38:03;0.50;;;0.50;;
16654;SDS011;8441;51.344;7.022;2023-03-01T00:40:32;0.57;;;0.57;;
16654;SDS011;8441;51.344;7.022;2023-03-01T00:43:02;0.60;;;0.60;;
16654;SDS011;8441;51.344;7.022;2023-03-01T00:45:29;0.70;;;0.70;;
16654;SDS011;8441;51.344;7.022;2023-03-01T00:47:57;0.60;;;0.60;;
16654;SDS011;8441;51.344;7.022;2023-03-01T00:50:24;0.70;;;0.70;;
16654;SDS011;8441;51.344;7.022;2023-03-01T00:52:52;0.70;;;0.70;;
16654;SDS011;8441;51.344;7.022;2023-03-01T00:55:20;0.60;;;0.60;;
16654;SDS011;8441;51.344;7.022;2023-03-01T00:57:47;0.60;;;0.60;;
16654;SDS011;8441;51.344;7.022;2023-03-01T01:00:16;0.60;;;0.60;;
16654;SDS011;8441;51.344;7.022;2023-03-01T01:02:44;0.70;;;0.70;;
16654;SDS011;8441;51.344;7.022;2023-03-01T01:05:11;0.60;;;0.60;;
16654;SDS011;8441;51.344;7.022;2023-03-01T01:07:39;0.60;;;0.60;;
16654;SDS011;8441;51.344;7.022;2023-03-01T01:10:06;0.60;;;0.60;;
16654;SDS011;8441;51.344;7.022;2023-03-01T01:12:38;0.60;;;0.60;;
16654;SDS011;8441;51.344;7.022;2023-03-01T01:15:05;0.60;;;0.60;;
16654;SDS011;8441;51.344;7.022;2023-03-01T01:17:34;0.57;;;0.57;;
16654;SDS011;8441;51.344;7.022;2023-03-01T01:20:02;0.50;;;0.50;;
16654;SDS011;8441;51.344;7.022;2023-03-01T01:22:29;0.60;;;0.60;;
16654;SDS011;8441;51.344;7.022;2023-03-01T01:24:56;0.60;;;0.60;;
16654;SDS011;8441;51.344;7.022;2023-03-01T01:27:23;0.80;;;0.80;;
16654;SDS011;8441;51.344;7.022;2023-03-01T01:29:52;0.70;;;0.70;;
16654;SDS011;8441;51.344;7.022;2023-03-01T01:32:19;0.50;;;0.50;;
16654;SDS011;8441;51.344;7.022;2023-03-01T01:34:48;0.50;;;0.50;;
16654;SDS011;8441;51.344;7.022;2023-03-01T01:37:15;0.60;;;0.60;;
16654;SDS011;8441;51.344;7.022;2023-03-01T01:39:42;0.70;;;0.70;;
16654;SDS011;8441;51.344;7.022;2023-03-01T01:42:11;0.60;;;0.60;;
16654;SDS011;8441;51.344;7.022;2023-03-01T01:44:42;0.70;;;0.70;;
16654;SDS011;8441;51.344;7.022;2023-03-01T01:47:12;0.60;;;0.60;;
16654;SDS011;8441;51.344;7.022;2023-03-01T01:49:43;0.60;;;0.60;;
16654;SDS011;8441;51.344;7.022;2023-03-01T01:52:16;0.50;;;0.50;;
16654;SDS011;8441;51.344;7.022;2023-03-01T01:54:48;0.50;;;0.50;;
16654;SDS011;8441;51.344;7.022;2023-03-01T01:57:20;0.67;;;0.67;;
16654;SDS011;8441;51.344;7.022;2023-03-01T01:59:51;0.60;;;0.60;;
16654;SDS011;8441;51.344;7.022;2023-03-01T02:02:21;0.60;;;0.60;;
16654;SDS011;8441;51.344;7.022;2023-03-01T02:04:48;0.70;;;0.70;;
16654;SDS011;8441;51.344;7.022;2023-03-01T02:07:21;0.50;;;0.50;;
16654;SDS011;8441;51.344;7.022;2023-03-01T02:09:50;0.63;;;0.63;;
16654;SDS011;8441;51.344;7.022;2023-03-01T02:12:20;0.70;;;0.70;;
16654;SDS011;8441;51.344;7.022;2023-03-01T02:14:49;0.77;;;0.77;;
16654;SDS011;8441;51.344;7.022;2023-03-01T02:17:17;0.70;;;0.70;;
16654;SDS011;8441;51.344;7.022;2023-03-01T02:19:49;0.60;;;0.60;;
16654;SDS011;8441;51.344;7.022;2023-03-01T02:22:24;0.70;;;0.70;;
16654;SDS011;8441;51.344;7.022;2023-03-01T02:25:01;0.60;;;0.60;;
16654;SDS011;8441;51.344;7.022;2023-03-01T02:27:38;0.70;;;0.70;;
16654;SDS011;8441;51.344;7.022;2023-03-01T02:30:13;0.70;;;0.70;;
16654;SDS011;8441;51.344;7.022;2023-03-01T02:32:40;0.70;;;0.70;;
16654;SDS011;8441;51.344;7.022;2023-03-01T02:35:08;0.63;;;0.63;;
16654;SDS011;8441;51.344;7.022;2023-03-01T02:37:36;0.70;;;0.70;;
16654;SDS011;8441;51.344;7.022;2023-03-01T02:40:05;0.73;;;0.73;;
16654;SDS011;8441;51.344;7.022;2023-03-01T02:42:40;0.60;;;0.60;;
16654;SDS011;8441;51.344;7.022;2023-03-01T02:45:13;0.60;;;0.60;;
16654;SDS011;8441;51.344;7.022;2023-03-01T02:47:40;0.60;;;0.60;;
16654;SDS011;8441;51.344;7.022;2023-03-01T02:50:15;0.60;;;0.60;;
16654;SDS011;8441;51.344;7.022;2023-03-01T02:52:53;0.50;;;0.50;;
16654;SDS011;8441;51.344;7.022;2023-03-01T02:55:24;0.50;;;0.50;;
16654;SDS011;8441;51.344;7.022;2023-03-01T02:57:52;0.60;;;0.60;;
16654;SDS011;8441;51.344;7.022;2023-03-01T03:00:23;0.60;;;0.60;;
16654;SDS011;8441;51.344;7.022;2023-03-01T03:02:54;0.50;;;0.50;;
16654;SDS011;8441;51.344;7.022;2023-03-01T03:05:24;0.60;;;0.60;;
16654;SDS011;8441;51.344;7.022;2023-03-01T03:07:53;0.60;;;0.60;;
16654;SDS011;8441;51.344;7.022;2023-03-01T03:10:22;0.60;;;0.60;;
16654;SDS011;8441;51.344;7.022;2023-03-01T03:12:50;0.80;;;0.80;;
16654;SDS011;8441;51.344;7.022;2023-03-01T03:15:18;0.57;;;0.57;;
16654;SDS011;8441;51.344;7.022;2023-03-01T03:17:47;0.50;;;0.50;;
16654;SDS011;8441;51.344;7.022;2023-03-01T03:20:16;0.63;;;0.63;;
16654;SDS011;8441;51.344;7.022;2023-03-01T03:22:45;0.70;;;0.70;;
16654;SDS011;8441;51.344;7.022;2023-03-01T03:25:13;0.70;;;0.70;;
16654;SDS011;8441;51.344;7.022;2023-03-01T03:27:41;0.80;;;0.80;;
16654;SDS011;8441;51.344;7.022;2023-03-01T03:30:10;0.70;;;0.70;;
16654;SDS011;8441;51.344;7.022;2023-03-01T03:32:39;0.60;;;0.60;;
16654;SDS011;8441;51.344;7.022;2023-03-01T03:35:09;0.67;;;0.67;;
16654;SDS011;8441;51.344;7.022;2023-03-01T03:37:36;0.60;;;0.60;;
16654;SDS011;8441;51.344;7.022;2023-03-01T03:40:21;0.73;;;0.73;;
16654;SDS011;8441;51.344;7.022;2023-03-01T03:42:49;0.73;;;0.73;;
16654;SDS011;8441;51.344;7.022;2023-03-01T03:45:16;0.70;;;0.70;;
16654;SDS011;8441;51.344;7.022;2023-03-01T03:47:44;0.70;;;0.70;;
16654;SDS011;8441;51.344;7.022;2023-03-01T03:50:13;0.70;;;0.70;;
16654;SDS011;8441;51.344;7.022;2023-03-01T03:52:42;0.60;;;0.60;;
16654;SDS011;8441;51.344;7.022;2023-03-01T03:55:10;0.60;;;0.60;;
16654;SDS011;8441;51.344;7.022;2023-03-01T03:57:39;0.70;;;0.70;;
16654;SDS011;8441;51.344;7.022;2023-03-01T04:00:08;0.50;;;0.50;;
16654;SDS011;8441;51.344;7.022;2023-03-01T04:02:38;0.60;;;0.60;;
16654;SDS011;8441;51.344;7.022;2023-03-01T04:05:05;0.70;;;0.70;;
16654;SDS011;8441;51.344;7.022;2023-03-01T04:07:35;0.60;;;0.60;;
16654;SDS011;8441;51.344;7.022;2023-03-01T04:10:03;0.60;;;0.60;;
16654;SDS011;8441;51.344;7.022;2023-03-01T04:12:31;0.50;;;0.50;;
16654;SDS011;8441;51.344;7.022;2023-03-01T04:14:59;0.67;;;0.67;;
16654;SDS011;8441;51.344;7.022;2023-03-01T04:17:26;0.60;;;0.60;;
16654;SDS011;8441;51.344;7.022;2023-03-01T04:19:54;0.60;;;0.60;;
16654;SDS011;8441;51.344;7.022;2023-03-01T04:22:21;0.70;;;0.70;;
16654;SDS011;8441;51.344;7.022;2023-03-01T04:24:49;0.60;;;0.60;;
16654;SDS011;8441;51.344;7.022;2023-03-01T04:27:16;0.60;;;0.60;;
16654;SDS011;8441;51.344;7.022;2023-03-01T04:29:44;0.70;;;0.70;;
16654;SDS011;8441;51.344;7.022;2023-03-01T04:32:11;0.70;;;0.70;;
16654;SDS011;8441;51.344;7.022;2023-03-01T04:34:41;0.80;;;0.80;;
16654;SDS011;8441;51.344;7.022;2023-03-01T04:37:08;0.60;;;0.60;;
16654;SDS011;8441;51.344;7.022;2023-03-01T04:39:35;0.63;;;0.63;;
16654;SDS011;8441;51.344;7.022;2023-03-01T04:42:11;0.63;;;0.63;;
16654;SDS011;8441;51.344;7.022;2023-03-01T04:44:38;0.60;;;0.60;;
16654;SDS011;8441;51.344;7.022;2023-03-01T04:47:06;0.50;;;0.50;;
16654;SDS011;8441;51.344;7.022;2023-03-01T04:49:33;0.60;;;0.60;;
16654;SDS011;8441;51.344;7.022;2023-03-01T04:52:00;0.50;;;0.50;;
16654;SDS011;8441;51.344;7.022;2023-03-01T04:54:28;0.70;;;0.70;;
16654;SDS011;8441;51.344;7.022;2023-03-01T04:56:55;0.70;;;0.70;;
16654;SDS011;8441;51.344;7.022;2023-03-01T04:59:24;0.70;;;0.70;;
16654;SDS011;8441;51.344;7.022;2023-03-01T05:01:51;0.73;;;0.73;;
16654;SDS011;8441;51.344;7.022;2023-03-01T05:04:20;0.80;;;0.80;;
16654;SDS011;8441;51.344;7.022;2023-03-01T05:06:48;0.60;;;0.60;;
16654;SDS011;8441;51.344;7.022;2023-03-01T05:09:15;0.70;;;0.70;;
16654;SDS011;8441;51.344;7.022;2023-03-01T05:11:43;0.70;;;0.70;;
16654;SDS011;8441;51.344;7.022;2023-03-01T05:14:10;0.70;;;0.70;;
16654;SDS011;8441;51.344;7.022;2023-03-01T05:16:39;0.70;;;0.70;;
16654;SDS011;8441;51.344;7.022;2023-03-01T05:19:06;0.60;;;0.60;;
16654;SDS011;8441;51.344;7.022;2023-03-01T05:21:40;0.40;;;0.40;;
16654;SDS011;8441;51.344;7.022;2023-03-01T05:24:21;0.50;;;0.50;;
16654;SDS011;8441;51.344;7.022;2023-03-01T05:26:48;0.60;;;0.60;;
16654;SDS011;8441;51.344;7.022;2023-03-01T05:29:17;0.60;;;0.60;;
16654;SDS011;8441;51.344;7.022;2023-03-01T05:31:51;0.70;;;0.70;;
16654;SDS011;8441;51.344;7.022;2023-03-01T05:34:22;0.70;;;0.70;;
16654;SDS011;8441;51.344;7.022;2023-03-01T05:36:50;0.60;;;0.60;;
16654;SDS011;8441;51.344;7.022;2023-03-01T05:39:18;0.70;;;0.70;;
16654;SDS011;8441;51.344;7.022;2023-03-01T05:41:47;0.70;;;0.70;;
16654;SDS011;8441;51.344;7.022;2023-03-01T05:44:15;0.70;;;0.70;;
16654;SDS011;8441;51.344;7.022;2023-03-01T05:46:42;0.70;;;0.70;;
16654;SDS011;8441;51.344;7.022;2023-03-01T05:49:11;0.60;;;0.60;;
16654;SDS011;8441;51.344;7.022;2023-03-01T05:51:38;0.67;;;0.67;;
16654;SDS011;8441;51.344;7.022;2023-03-01T05:54:06;0.70;;;0.70;;
16654;SDS011;8441;51.344;7.022;2023-03-01T05:56:33;0.70;;;0.70;;
16654;SDS011;8441;51.344;7.022;2023-03-01T05:59:01;0.50;;;0.50;;
16654;SDS011;8441;51.344;7.022;2023-03-01T06:01:30;0.50;;;0.50;;
16654;SDS011;8441;51.344;7.022;2023-03-01T06:03:57;0.63;;;0.63;;
16654;SDS011;8441;51.344;7.022;2023-03-01T06:06:25;0.70;;;0.70;;
16654;SDS011;8441;51.344;7.022;2023-03-01T06:08:53;0.77;;;0.77;;
16654;SDS011;8441;51.344;7.022;2023-03-01T06:11:20;0.60;;;0.60;;
16654;SDS011;8441;51.344;7.022;2023-03-01T06:13:48;0.67;;;0.67;;
16654;SDS011;8441;51.344;7.022;2023-03-01T06:16:15;0.80;;;0.80;;
16654;SDS011;8441;51.344;7.022;2023-03-01T06:18:43;0.70;;;0.70;;
16654;SDS011;8441;51.344;7.022;2023-03-01T06:21:10;0.67;;;0.67;;
16654;SDS011;8441;51.344;7.022;2023-03-01T06:23:38;0.90;;;0.90;;
16654;SDS011;8441;51.344;7.022;2023-03-01T06:26:06;0.73;;;0.73;;
16654;SDS011;8441;51.344;7.022;2023-03-01T06:28:34;0.70;;;0.70;;
16654;SDS011;8441;51.344;7.022;2023-03-01T06:31:02;0.70;;;0.70;;
16654;SDS011;8441;51.344;7.022;2023-03-01T06:33:29;0.70;;;0.70;;
16654;SDS011;8441;51.344;7.022;2023-03-01T06:35:56;0.63;;;0.63;;
16654;SDS011;8441;51.344;7.022;2023-03-01T06:38:23;0.80;;;0.80;;
16654;SDS011;8441;51.344;7.022;2023-03-01T06:40:54;0.70;;;0.70;;
16654;SDS011;8441;51.344;7.022;2023-03-01T06:43:22;0.70;;;0.70;;
16654;SDS011;8441;51.344;7.022;2023-03-01T06:45:50;0.80;;;0.80;;
16654;SDS011;8441;51.344;7.022;2023-03-01T06:48:17;0.60;;;0.60;;
16654;SDS011;8441;51.344;7.022;2023-03-01T06:50:44;0.80;;;0.80;;
16654;SDS011;8441;51.344;7.022;2023-03-01T06:53:11;0.80;;;0.80;;
16654;SDS011;8441;51.344;7.022;2023-03-01T06:55:38;0.80;;;0.80;;
16654;SDS011;8441;51.344;7.022;2023-03-01T06:58:08;0.90;;;0.90;;
16654;SDS011;8441;51.344;7.022;2023-03-01T07:00:36;0.70;;;0.70;;
16654;SDS011;8441;51.344;7.022;2023-03-01T07:03:05;0.70;;;0.70;;
16654;SDS011;8441;51.344;7.022;2023-03-01T07:05:33;0.70;;;0.70;;
16654;SDS011;8441;51.344;7.022;2023-03-01T07:08:00;0.80;;;0.80;;
16654;SDS011;8441;51.344;7.022;2023-03-01T07:10:27;0.60;;;0.60;;
16654;SDS011;8441;51.344;7.022;2023-03-01T07:12:55;0.70;;;0.70;;
16654;SDS011;8441;51.344;7.022;2023-03-01T07:15:24;0.60;;;0.60;;
16654;SDS011;8441;51.344;7.022;2023-03-01T07:17:52;0.70;;;0.70;;
16654;SDS011;8441;51.344;7.022;2023-03-01T07:20:19;0.70;;;0.70;;
16654;SDS011;8441;51.344;7.022;2023-03-01T07:22:50;0.60;;;0.60;;
16654;SDS011;8441;51.344;7.022;2023-03-01T07:25:17;0.70;;;0.70;;
16654;SDS011;8441;51.344;7.022;2023-03-01T07:27:48;0.70;;;0.70;;
16654;SDS011;8441;51.344;7.022;2023-03-01T07:30:16;0.60;;;0.60;;
16654;SDS011;8441;51.344;7.022;2023-03-01T07:32:45;0.53;;;0.53;;
16654;SDS011;8441;51.344;7.022;2023-03-01T07:35:12;0.70;;;0.70;;
16654;SDS011;8441;51.344;7.022;2023-03-01T07:37:40;0.60;;;0.60;;
16654;SDS011;8441;51.344;7.022;2023-03-01T07:40:07;0.70;;;0.70;;
16654;SDS011;8441;51.344;7.022;2023-03-01T07:42:35;0.60;;;0.60;;
16654;SDS011;8441;51.344;7.022;2023-03-01T07:45:03;0.70;;;0.70;;
16654;SDS011;8441;51.344;7.022;2023-03-01T07:47:31;0.60;;;0.60;;
16654;SDS011;8441;51.344;7.022;2023-03-01T07:50:00;0.60;;;0.60;;
16654;SDS011;8441;51.344;7.022;2023-03-01T07:52:27;0.70;;;0.70;;
16654;SDS011;8441;51.344;7.022;2023-03-01T07:54:56;0.60;;;0.60;;
16654;SDS011;8441;51.344;7.022;2023-03-01T07:57:23;0.53;;;0.53;;
16654;SDS011;8441;51.344;7.022;2023-03-01T07:59:50;0.53;;;0.53;;
16654;SDS011;8441;51.344;7.022;2023-03-01T08:02:17;0.50;;;0.50;;
16654;SDS011;8441;51.344;7.022;2023-03-01T08:04:44;0.60;;;0.60;;
16654;SDS011;8441;51.344;7.022;2023-03-01T08:07:13;0.70;;;0.70;;
16654;SDS011;8441;51.344;7.022;2023-03-01T08:09:40;0.60;;;0.60;;
16654;SDS011;8441;51.344;7.022;2023-03-01T08:12:08;0.70;;;0.70;;
16654;SDS011;8441;51.344;7.022;2023-03-01T08:14:35;0.60;;;0.60;;
16654;SDS011;8441;51.344;7.022;2023-03-01T08:17:02;0.50;;;0.50;;
16654;SDS011;8441;51.344;7.022;2023-03-01T08:19:29;0.67;;;0.67;;
16654;SDS011;8441;51.344;7.022;2023-03-01T08:21:58;0.70;;;0.70;;
16654;SDS011;8441;51.344;7.022;2023-03-01T08:24:26;0.60;;;0.60;;
16654;SDS011;8441;51.344;7.022;2023-03-01T08:26:54;0.60;;;0.60;;
16654;SDS011;8441;51.344;7.022;2023-03-01T08:29:21;0.60;;;0.60;;
16654;SDS011;8441;51.344;7.022;2023-03-01T08:31:49;0.57;;;0.57;;
16654;SDS011;8441;51.344;7.022;2023-03-01T08:34:17;0.60;;;0.60;;
16654;SDS011;8441;51.344;7.022;2023-03-01T08:36:45;0.60;;;0.60;;
16654;SDS011;8441;51.344;7.022;2023-03-01T08:39:13;0.60;;;0.60;;
16654;SDS011;8441;51.344;7.022;2023-03-01T08:41:43;0.70;;;0.70;;
16654;SDS011;8441;51.344;7.022;2023-03-01T08:44:11;0.60;;;0.60;;
16654;SDS011;8441;51.344;7.022;2023-03-01T08:46:41;0.50;;;0.50;;
16654;SDS011;8441;51.344;7.022;2023-03-01T08:49:11;0.60;;;0.60;;
16654;SDS011;8441;51.344;7.022;2023-03-01T08:51:39;0.50;;;0.50;;
16654;SDS011;8441;51.344;7.022;2023-03-01T08:54:09;0.57;;;0.57;;
16654;SDS011;8441;51.344;7.022;2023-03-01T08:56:38;0.50;;;0.50;;
16654;SDS011;8441;51.344;7.022;2023-03-01T08:59:07;0.50;;;0.50;;
16654;SDS011;8441;51.344;7.022;2023-03-01T09:01:35;0.60;;;0.60;;
16654;SDS011;8441;51.344;7.022;2023-03-01T09:04:02;0.60;;;0.60;;
16654;SDS011;8441;51.344;7.022;2023-03-01T09:06:30;0.50;;;0.50;;
16654;SDS011;8441;51.344;7.022;2023-03-01T09:08:58;0.60;;;0.60;;
16654;SDS011;8441;51.344;7.022;2023-03-01T09:11:26;0.60;;;0.60;;
16654;SDS011;8441;51.344;7.022;2023-03-01T09:13:55;0.50;;;0.50;;
16654;SDS011;8441;51.344;7.022;2023-03-01T09:16:23;0.50;;;0.50;;
16654;SDS011;8441;51.344;7.022;2023-03-01T09:18:51;0.40;;;0.40;;
16654;SDS011;8441;51.344;7.022;2023-03-01T09:21:19;0.50;;;0.50;;
16654;SDS011;8441;51.344;7.022;2023-03-01T09:23:48;0.50;;;0.50;;
16654;SDS011;8441;51.344;7.022;2023-03-01T09:26:16;0.57;;;0.57;;
16654;SDS011;8441;51.344;7.022;2023-03-01T09:28:44;0.60;;;0.60;;
16654;SDS011;8441;51.344;7.022;2023-03-01T09:31:11;0.50;;;0.50;;
16654;SDS011;8441;51.344;7.022;2023-03-01T09:33:41;0.50;;;0.50;;
16654;SDS011;8441;51.344;7.022;2023-03-01T09:36:12;0.40;;;0.40;;
16654;SDS011;8441;51.344;7.022;2023-03-01T09:38:40;0.60;;;0.60;;
16654;SDS011;8441;51.344;7.022;2023-03-01T09:41:11;0.50;;;0.50;;
16654;SDS011;8441;51.344;7.022;2023-03-01T09:43:53;0.60;;;0.60;;
16654;SDS011;8441;51.344;7.022;2023-03-01T09:46:26;0.40;;;0.40;;
16654;SDS011;8441;51.344;7.022;2023-03-01T09:48:56;0.50;;;0.50;;
16654;SDS011;8441;51.344;7.022;2023-03-01T09:51:29;0.30;;;0.30;;
16654;SDS011;8441;51.344;7.022;2023-03-01T09:53:58;0.40;;;0.40;;
16654;SDS011;8441;51.344;7.022;2023-03-01T09:56:28;0.60;;;0.60;;
16654;SDS011;8441;51.344;7.022;2023-03-01T09:59:02;0.50;;;0.50;;
16654;SDS011;8441;51.344;7.022;2023-03-01T10:01:43;0.50;;;0.50;;
16654;SDS011;8441;51.344;7.022;2023-03-01T10:04:32;0.47;;;0.47;;
16654;SDS011;8441;51.344;7.022;2023-03-01T10:07:13;0.40;;;0.40;;
16654;SDS011;8441;51.344;7.022;2023-03-01T10:09:48;0.50;;;0.50;;
16654;SDS011;8441;51.344;7.022;2023-03-01T10:12:16;0.40;;;0.40;;
16654;SDS011;8441;51.344;7.022;2023-03-01T10:14:48;0.53;;;0.53;;
16654;SDS011;8441;51.344;7.022;2023-03-01T10:17:24;0.50;;;0.50;;
16654;SDS011;8441;51.344;7.022;2023-03-01T10:19:57;0.50;;;0.50;;
16654;SDS011;8441;51.344;7.022;2023-03-01T10:22:42;0.40;;;0.40;;
16654;SDS011;8441;51.344;7.022;2023-03-01T10:25:12;0.60;;;0.60;;
16654;SDS011;8441;51.344;7.022;2023-03-01T10:27:42;0.40;;;0.40;;
16654;SDS011;8441;51.344;7.022;2023-03-01T10:30:17;0.40;;;0.40;;
16654;SDS011;8441;51.344;7.022;2023-03-01T10:32:48;0.40;;;0.40;;
16654;SDS011;8441;51.344;7.022;2023-03-01T10:35:20;0.50;;;0.50;;
16654;SDS011;8441;51.344;7.022;2023-03-01T10:38:01;0.50;;;0.50;;
16654;SDS011;8441;51.344;7.022;2023-03-01T10:40:30;0.40;;;0.40;;
16654;SDS011;8441;51.344;7.022;2023-03-01T10:42:58;0.50;;;0.50;;
16654;SDS011;8441;51.344;7.022;2023-03-01T10:45:33;0.38;;;0.38;;
16654;SDS011;8441;51.344;7.022;2023-03-01T10:48:11;0.40;;;0.40;;
16654;SDS011;8441;51.344;7.022;2023-03-01T10:50:42;0.40;;;0.40;;
16654;SDS011;8441;51.344;7.022;2023-03-01T10:53:21;0.50;;;0.50;;
16654;SDS011;8441;51.344;7.022;2023-03-01T10:55:58;0.53;;;0.53;;
16654;SDS011;8441;51.344;7.022;2023-03-01T10:58:27;0.40;;;0.40;;
16654;SDS011;8441;51.344;7.022;2023-03-01T11:00:56;0.40;;;0.40;;
16654;SDS011;8441;51.344;7.022;2023-03-01T11:03:26;0.50;;;0.50;;
16654;SDS011;8441;51.344;7.022;2023-03-01T11:06:00;0.37;;;0.37;;
16654;SDS011;8441;51.344;7.022;2023-03-01T11:08:30;0.43;;;0.43;;
16654;SDS011;8441;51.344;7.022;2023-03-01T11:13:53;0.50;;;0.50;;
16654;SDS011;8441;51.344;7.022;2023-03-01T11:16:24;0.40;;;0.40;;
16654;SDS011;8441;51.344;7.022;2023-03-01T11:18:57;0.40;;;0.40;;
16654;SDS011;8441;51.344;7.022;2023-03-01T11:21:28;0.30;;;0.30;;
16654;SDS011;8441;51.344;7.022;2023-03-01T11:23:57;0.40;;;0.40;;
16654;SDS011;8441;51.344;7.022;2023-03-01T11:26:27;0.40;;;0.40;;
16654;SDS011;8441;51.344;7.022;2023-03-01T11:28:56;0.45;;;0.45;;
16654;SDS011;8441;51.344;7.022;2023-03-01T11:31:30;0.40;;;0.40;;
16654;SDS011;8441;51.344;7.022;2023-03-01T11:33:59;0.40;;;0.40;;
16654;SDS011;8441;51.344;7.022;2023-03-01T11:36:39;0.40;;;0.40;;
16654;SDS011;8441;51.344;7.022;2023-03-01T11:39:15;0.40;;;0.40;;
16654;SDS011;8441;51.344;7.022;2023-03-01T11:41:50;0.50;;;0.50;;
16654;SDS011;8441;51.344;7.022;2023-03-01T11:44:28;0.45;;;0.45;;
16654;SDS011;8441;51.344;7.022;2023-03-01T11:47:06;0.50;;;0.50;;
16654;SDS011;8441;51.344;7.022;2023-03-01T11:49:47;0.40;;;0.40;;
16654;SDS011;8441;51.344;7.022;2023-03-01T11:52:31;0.40;;;0.40;;
16654;SDS011;8441;51.344;7.022;2023-03-01T11:55:16;0.35;;;0.35;;
16654;SDS011;8441;51.344;7.022;2023-03-01T11:57:55;0.40;;;0.40;;
16654;SDS011;8441;51.344;7.022;2023-03-01T12:00:37;0.40;;;0.40;;
16654;SDS011;8441;51.344;7.022;2023-03-01T12:03:27;0.40;;;0.40;;
16654;SDS011;8441;51.344;7.022;2023-03-01T12:08:52;0.30;;;0.30;;
16654;SDS011;8441;51.344;7.022;2023-03-01T12:11:32;0.50;;;0.50;;
16654;SDS011;8441;51.344;7.022;2023-03-01T12:14:28;0.47;;;0.47;;
16654;SDS011;8441;51.344;7.022;2023-03-01T12:17:14;0.40;;;0.40;;
16654;SDS011;8441;51.344;7.022;2023-03-01T12:20:02;0.40;;;0.40;;
16654;SDS011;8441;51.344;7.022;2023-03-01T12:22:44;0.40;;;0.40;;
16654;SDS011;8441;51.344;7.022;2023-03-01T12:25:28;0.40;;;0.40;;
16654;SDS011;8441;51.344;7.022;2023-03-01T12:34:07;0.40;;;0.40;;
16654;SDS011;8441;51.344;7.022;2023-03-01T12:36:51;0.40;;;0.40;;
16654;SDS011;8441;51.344;7.022;2023-03-01T12:39:34;0.32;;;0.32;;
16654;SDS011;8441;51.344;7.022;2023-03-01T12:42:14;0.30;;;0.30;;
16654;SDS011;8441;51.344;7.022;2023-03-01T12:45:04;0.40;;;0.40;;
16654;SDS011;8441;51.344;7.022;2023-03-01T12:47:54;0.40;;;0.40;;
16654;SDS011;8441;51.344;7.022;2023-03-01T12:50:41;0.40;;;0.40;;
16654;SDS011;8441;51.344;7.022;2023-03-01T12:53:17;0.30;;;0.30;;
16654;SDS011;8441;51.344;7.022;2023-03-01T12:55:50;0.30;;;0.30;;
16654;SDS011;8441;51.344;7.022;2023-03-01T12:58:23;0.40;;;0.40;;
16654;SDS011;8441;51.344;7.022;2023-03-01T13:01:01;0.40;;;0.40;;
16654;SDS011;8441;51.344;7.022;2023-03-01T13:03:51;0.40;;;0.40;;
16654;SDS011;8441;51.344;7.022;2023-03-01T13:06:31;0.30;;;0.30;;
16654;SDS011;8441;51.344;7.022;2023-03-01T13:09:07;0.32;;;0.32;;
16654;SDS011;8441;51.344;7.022;2023-03-01T13:11:44;0.43;;;0.43;;
16654;SDS011;8441;51.344;7.022;2023-03-01T13:17:21;0.40;;;0.40;;
16654;SDS011;8441;51.344;7.022;2023-03-01T13:19:57;0.40;;;0.40;;
16654;SDS011;8441;51.344;7.022;2023-03-01T13:22:26;0.40;;;0.40;;
16654;SDS011;8441;51.344;7.022;2023-03-01T13:25:10;0.40;;;0.40;;
16654;SDS011;8441;51.344;7.022;2023-03-01T13:27:41;0.30;;;0.30;;
16654;SDS011;8441;51.344;7.022;2023-03-01T13:36:09;0.30;;;0.30;;
16654;SDS011;8441;51.344;7.022;2023-03-01T13:38:48;0.40;;;0.40;;
16654;SDS011;8441;51.344;7.022;2023-03-01T13:44:17;0.40;;;0.40;;
16654;SDS011;8441;51.344;7.022;2023-03-01T13:46:53;0.40;;;0.40;;
16654;SDS011;8441;51.344;7.022;2023-03-01T13:49:23;0.30;;;0.30;;
16654;SDS011;8441;51.344;7.022;2023-03-01T13:51:55;0.40;;;0.40;;
16654;SDS011;8441;51.344;7.022;2023-03-01T13:54:24;0.40;;;0.40;;
16654;SDS011;8441;51.344;7.022;2023-03-01T13:56:54;0.40;;;0.40;;
16654;SDS011;8441;51.344;7.022;2023-03-01T13:59:23;0.40;;;0.40;;
16654;SDS011;8441;51.344;7.022;2023-03-01T14:01:53;0.40;;;0.40;;
16654;SDS011;8441;51.344;7.022;2023-03-01T14:04:22;0.30;;;0.30;;
16654;SDS011;8441;51.344;7.022;2023-03-01T14:06:50;0.43;;;0.43;;
16654;SDS011;8441;51.344;7.022;2023-03-01T14:09:18;0.30;;;0.30;;
16654;SDS011;8441;51.344;7.022;2023-03-01T14:12:02;0.40;;;0.40;;
16654;SDS011;8441;51.344;7.022;2023-03-01T14:14:42;0.40;;;0.40;;
16654;SDS011;8441;51.344;7.022;2023-03-01T14:20:12;0.40;;;0.40;;
16654;SDS011;8441;51.344;7.022;2023-03-01T14:22:43;0.35;;;0.35;;
16654;SDS011;8441;51.344;7.022;2023-03-01T14:25:22;0.35;;;0.35;;
16654;SDS011;8441;51.344;7.022;2023-03-01T14:27:55;0.40;;;0.40;;
16654;SDS011;8441;51.344;7.022;2023-03-01T14:30:25;0.30;;;0.30;;
16654;SDS011;8441;51.344;7.022;2023-03-01T14:32:56;0.30;;;0.30;;
16654;SDS011;8441;51.344;7.022;2023-03-01T14:35:25;0.30;;;0.30;;
16654;SDS011;8441;51.344;7.022;2023-03-01T14:37:54;0.30;;;0.30;;
16654;SDS011;8441;51.344;7.022;2023-03-01T14:40:24;0.40;;;0.40;;
16654;SDS011;8441;51.344;7.022;2023-03-01T14:42:53;0.40;;;0.40;;
16654;SDS011;8441;51.344;7.022;2023-03-01T14:45:23;0.30;;;0.30;;
16654;SDS011;8441;51.344;7.022;2023-03-01T14:47:52;0.30;;;0.30;;
16654;SDS011;8441;51.344;7.022;2023-03-01T14:50:23;0.30;;;0.30;;
16654;SDS011;8441;51.344;7.022;2023-03-01T14:52:54;0.50;;;0.50;;
16654;SDS011;8441;51.344;7.022;2023-03-01T14:55:25;0.40;;;0.40;;
16654;SDS011;8441;51.344;7.022;2023-03-01T14:57:55;0.30;;;0.30;;
16654;SDS011;8441;51.344;7.022;2023-03-01T15:00:24;0.38;;;0.38;;
16654;SDS011;8441;51.344;7.022;2023-03-01T15:02:53;0.45;;;0.45;;
16654;SDS011;8441;51.344;7.022;2023-03-01T15:05:25;0.40;;;0.40;;
16654;SDS011;8441;51.344;7.022;2023-03-01T15:07:55;0.30;;;0.30;;
16654;SDS011;8441;51.344;7.022;2023-03-01T15:10:24;0.50;;;0.50;;
16654;SDS011;8441;51.344;7.022;2023-03-01T15:12:53;0.38;;;0.38;;
16654;SDS011;8441;51.344;7.022;2023-03-01T15:15:31;0.30;;;0.30;;
16654;SDS011;8441;51.344;7.022;2023-03-01T15:18:01;0.30;;;0.30;;
16654;SDS011;8441;51.344;7.022;2023-03-01T15:20:33;0.30;;;0.30;;
16654;SDS011;8441;51.344;7.022;2023-03-01T15:23:03;0.30;;;0.30;;
16654;SDS011;8441;51.344;7.022;2023-03-01T15:25:31;0.40;;;0.40;;
16654;SDS011;8441;51.344;7.022;2023-03-01T15:28:00;0.40;;;0.40;;
16654;SDS011;8441;51.344;7.022;2023-03-01T15:30:29;0.40;;;0.40;;
16654;SDS011;8441;51.344;7.022;2023-03-01T15:33:27;0.30;;;0.30;;
16654;SDS011;8441;51.344;7.022;2023-03-01T15:35:58;0.30;;;0.30;;
16654;SDS011;8441;51.344;7.022;2023-03-01T15:38:27;0.40;;;0.40;;
16654;SDS011;8441;51.344;7.022;2023-03-01T15:40:57;0.30;;;0.30;;
16654;SDS011;8441;51.344;7.022;2023-03-01T15:43:41;0.30;;;0.30;;
16654;SDS011;8441;51.344;7.022;2023-03-01T15:46:20;0.40;;;0.40;;
16654;SDS011;8441;51.344;7.022;2023-03-01T15:48:51;0.30;;;0.30;;